Time;durP1;ratioP1;P1;durP2;ratioP2;P2;SDS_P1;SDS_P2;PMS_P1;PMS_P2;Temp;Humidity;BMP_temperature;BMP_pressure;BME280_temperature;BME280_humidity;BME280_pressure;Samples;Min_cycle;Max_cycle;Signal;HPM_P1;HPM_P2
2021/07/16 00:01:25;;;;;;;;;;;;;;;25.04;63.90;98797.33;1873580;76;20094;-63
2021/07/16 00:04:18;;;;;;;;;;;;;;;25.02;64.11;98792.59;1873480;76;20212;-62
2021/07/16 00:06:54;;;;;;;;;;;;;;;24.99;64.20;98796.70;1873301;76;20097;-63
2021/07/16 00:09:28;;;;;;;;;;;;;;;24.96;64.50;98802.12;1873475;76;20097;-62
2021/07/16 00:12:03;;;;;;;;;;;;;;;24.94;64.91;98797.41;1873519;76;20094;-64
2021/07/16 00:14:57;;;;;;;;;;;;;;;24.87;65.17;98801.66;1873517;76;20216;-62
2021/07/16 00:17:31;;;;;;;;;;;;;;;24.83;65.28;98795.28;1873518;76;20188;-61
2021/07/16 00:20:10;;;;;;;;;;;;;;;24.78;65.67;98799.50;1873596;76;20212;-63
2021/07/16 00:22:44;;;;;;;;;;;;;;;24.74;65.93;98796.61;1873471;76;20094;-62
2021/07/16 00:25:37;;;;;;;;;;;;;;;24.69;66.20;98801.26;1873429;76;20212;-62
2021/07/16 00:28:13;;;;;;;;;;;;;;;24.64;66.40;98800.16;1892772;76;20097;-64
2021/07/16 00:30:50;;;;;;;;;;;;;;;24.60;66.52;98801.26;1873243;76;20204;-62
2021/07/16 00:33:25;;;;;;;;;;;;;;;24.58;66.71;98797.84;1873345;76;20204;-61
2021/07/16 00:36:25;;;;;;;;;;;;;;;24.56;66.86;98798.37;1872468;76;20101;-60
2021/07/16 00:39:01;;;;;;;;;;;;;;;24.55;66.86;98798.43;1892763;76;20101;-61
2021/07/16 00:41:41;;;;;;;;;;;;;;;24.54;66.87;98800.22;1872631;76;20098;-62
2021/07/16 00:44:19;;;;;;;;;;;;;;;24.56;66.73;98801.48;1873295;76;20102;-61
2021/07/16 00:46:55;;;;;;;;;;;;;;;24.57;66.76;98799.22;1873364;76;20094;-62
2021/07/16 00:49:50;;;;;;;;;;;;;;;24.59;66.81;98797.36;1892753;76;20097;-63
2021/07/16 00:52:24;;;;;;;;;;;;;;;24.61;66.54;98799.47;1873477;76;20101;-62
2021/07/16 00:54:59;;;;;;;;;;;;;;;24.60;66.08;98794.66;1892805;76;20097;-61
2021/07/16 00:57:34;;;;;;;;;;;;;;;24.62;65.47;98794.56;1873515;76;20093;-61
2021/07/16 01:00:12;;;;;;;;;;;;;;;24.62;65.81;98794.09;1873395;76;20098;-62
2021/07/16 01:03:05;;;;;;;;;;;;;;;24.61;65.90;98791.55;1873435;76;20216;-62
2021/07/16 01:06:01;;;;;;;;;;;;;;;24.60;65.49;98796.42;1892729;76;20215;-63
2021/07/16 01:08:35;;;;;;;;;;;;;;;24.61;65.14;98795.04;1873502;76;20208;-62
2021/07/16 01:11:10;;;;;;;;;;;;;;;24.62;64.78;98792.78;1892817;76;20203;-61
2021/07/16 01:13:44;;;;;;;;;;;;;;;24.65;64.67;98798.37;1892802;76;20097;-62
2021/07/16 01:16:39;;;;;;;;;;;;;;;24.63;64.67;98790.55;1892714;76;20457;-61
2021/07/16 01:19:18;;;;;;;;;;;;;;;24.64;64.86;98790.08;1873436;76;20450;-61
2021/07/16 01:21:52;;;;;;;;;;;;;;;24.61;64.69;98787.13;1892771;76;20342;-62
2021/07/16 01:24:35;;;;;;;;;;;;;;;24.61;64.48;98792.88;1892833;76;20113;-62
2021/07/16 01:27:11;;;;;;;;;;;;;;;24.61;64.69;98785.80;1873306;76;20204;-62
2021/07/16 01:29:46;;;;;;;;;;;;;;;24.61;64.63;98786.28;1892905;76;20093;-62
2021/07/16 01:32:41;;;;;;;;;;;;;;;24.60;64.75;98782.79;1873243;76;20351;-62
2021/07/16 01:35:19;;;;;;;;;;;;;;;24.60;64.77;98780.59;1873471;76;20102;-62
2021/07/16 01:37:53;;;;;;;;;;;;;;;24.60;64.61;98777.95;1873670;76;20208;-64
2021/07/16 01:40:30;;;;;;;;;;;;;;;24.58;64.64;98775.88;1873486;76;20094;-61
2021/07/16 01:43:06;;;;;;;;;;;;;;;24.56;64.89;98764.06;1892789;76;20351;-63
2021/07/16 01:45:42;;;;;;;;;;;;;;;24.55;64.87;98764.13;1873488;76;20331;-63
2021/07/16 01:48:35;;;;;;;;;;;;;;;24.53;65.00;98748.40;1873471;76;20482;-63
2021/07/16 01:51:10;;;;;;;;;;;;;;;24.53;64.85;98744.91;1873501;76;20208;-62
2021/07/16 01:53:46;;;;;;;;;;;;;;;24.51;64.98;98742.81;1873428;76;20094;-63
2021/07/16 01:57:01;;;;;;;;;;;;;;;24.47;65.19;98752.20;1867645;75;20139;-62
2021/07/16 01:59:36;;;;;;;;;;;;;;;24.45;65.53;98746.14;1873465;76;20347;-62
2021/07/16 02:02:10;;;;;;;;;;;;;;;24.40;65.82;98730.97;1892792;76;20204;-62
2021/07/16 02:04:45;;;;;;;;;;;;;;;24.37;66.03;98732.41;1873459;76;20220;-63
2021/07/16 02:07:19;;;;;;;;;;;;;;;24.33;65.77;98732.66;1873569;76;20093;-63
2021/07/16 02:09:54;;;;;;;;;;;;;;;24.30;65.99;98738.95;1873383;76;20094;-63
2021/07/16 02:12:49;;;;;;;;;;;;;;;24.29;66.71;98741.64;1871860;75;20251;-62
2021/07/16 02:15:29;;;;;;;;;;;;;;;24.24;66.92;98744.50;1892932;76;20096;-62
2021/07/16 02:18:04;;;;;;;;;;;;;;;24.20;67.22;98740.32;1873418;76;20355;-61
2021/07/16 02:20:41;;;;;;;;;;;;;;;24.18;67.34;98740.85;1892893;76;20097;-62
2021/07/16 02:23:22;;;;;;;;;;;;;;;24.14;67.58;98731.37;1873431;76;20177;-63
2021/07/16 02:25:57;;;;;;;;;;;;;;;24.13;67.56;98736.27;1873481;76;20097;-65
2021/07/16 02:28:51;;;;;;;;;;;;;;;24.11;67.72;98729.73;1873530;76;20348;-61
2021/07/16 02:31:27;;;;;;;;;;;;;;;24.09;67.62;98726.78;1892797;76;20097;-64
2021/07/16 02:34:04;;;;;;;;;;;;;;;24.08;67.84;98728.57;1892818;76;20207;-62
2021/07/16 02:36:39;;;;;;;;;;;;;;;24.05;67.87;98721.66;1873497;76;20097;-62
2021/07/16 02:39:14;;;;;;;;;;;;;;;24.05;67.36;98722.98;1873411;76;20344;-62
2021/07/16 02:41:51;;;;;;;;;;;;;;;24.09;67.27;98728.09;1892788;76;20203;-62
2021/07/16 02:44:25;;;;;;;;;;;;;;;24.10;67.32;98723.23;1873523;76;20208;-62
2021/07/16 02:47:00;;;;;;;;;;;;;;;24.11;67.05;98723.61;1873490;76;20204;-64
2021/07/16 02:49:34;;;;;;;;;;;;;;;24.13;66.73;98729.67;1873482;76;20098;-62
2021/07/16 02:52:08;;;;;;;;;;;;;;;24.15;66.63;98729.98;1873440;76;20097;-63
2021/07/16 02:55:04;;;;;;;;;;;;;;;24.18;66.32;98725.88;1880629;75;20141;-62
2021/07/16 02:57:39;;;;;;;;;;;;;;;24.22;66.72;98727.89;1873596;76;20455;-62
2021/07/16 03:00:33;;;;;;;;;;;;;;;24.24;66.65;98726.04;1892770;76;20207;-61
2021/07/16 03:03:09;;;;;;;;;;;;;;;24.27;66.48;98725.88;1873489;76;20204;-63
2021/07/16 03:05:43;;;;;;;;;;;;;;;24.32;66.58;98725.19;1873483;76;20212;-62
2021/07/16 03:08:18;;;;;;;;;;;;;;;24.36;66.47;98724.12;1892808;76;20093;-62
2021/07/16 03:10:54;;;;;;;;;;;;;;;24.41;66.20;98723.91;1892799;76;20211;-63
2021/07/16 03:13:47;;;;;;;;;;;;;;;24.44;65.90;98727.23;1873474;76;20097;-62
2021/07/16 03:16:22;;;;;;;;;;;;;;;24.49;66.07;98728.36;1873505;76;20351;-63
2021/07/16 03:19:00;;;;;;;;;;;;;;;24.52;66.02;98737.91;1873475;76;20097;-62
2021/07/16 03:21:53;;;;;;;;;;;;;;;24.55;65.68;98741.27;1873466;76;20208;-62
2021/07/16 03:24:28;;;;;;;;;;;;;;;24.60;65.77;98742.33;1873502;76;20454;-62
2021/07/16 03:27:04;;;;;;;;;;;;;;;24.68;65.34;98749.42;1892863;76;20097;-62
2021/07/16 03:29:37;;;;;;;;;;;;;;;24.75;65.28;98752.59;1892795;76;20097;-61
2021/07/16 03:32:30;;;;;;;;;;;;;;;24.82;64.93;98750.87;1873461;76;20208;-62
2021/07/16 03:35:07;;;;;;;;;;;;;;;24.91;64.73;98762.78;1892774;76;20097;-64
2021/07/16 03:37:43;;;;;;;;;;;;;;;24.99;64.45;98762.39;1873406;76;20204;-61
2021/07/16 03:40:19;;;;;;;;;;;;;;;25.04;64.14;98763.85;1892806;76;20097;-62
2021/07/16 03:42:53;;;;;;;;;;;;;;;25.12;63.77;98770.91;1873430;76;20212;-63
2021/07/16 03:45:28;;;;;;;;;;;;;;;25.20;63.30;98774.50;1892812;76;20093;-63
2021/07/16 03:48:05;;;;;;;;;;;;;;;25.27;63.02;98774.58;1873293;76;20101;-63
2021/07/16 03:51:01;;;;;;;;;;;;;;;25.37;62.85;98775.42;1873257;76;20097;-62
2021/07/16 03:53:54;;;;;;;;;;;;;;;25.48;62.28;98777.02;1892862;76;20199;-62
2021/07/16 03:56:30;;;;;;;;;;;;;;;25.58;62.19;98777.39;1892779;76;20183;-60
2021/07/16 03:59:11;;;;;;;;;;;;;;;25.66;61.63;98774.70;1892729;76;20121;-62
2021/07/16 04:01:48;;;;;;;;;;;;;;;25.70;61.35;98776.27;1892882;76;20097;-62
2021/07/16 04:04:29;;;;;;;;;;;;;;;25.71;61.19;98777.95;1892895;76;20093;-63
2021/07/16 04:07:06;;;;;;;;;;;;;;;25.77;60.92;98780.29;1892814;76;20092;-63
2021/07/16 04:09:41;;;;;;;;;;;;;;;25.82;60.74;98778.69;1892738;76;20097;-63
2021/07/16 04:12:20;;;;;;;;;;;;;;;25.88;60.48;98782.84;1873403;76;20347;-63
2021/07/16 04:14:54;;;;;;;;;;;;;;;25.98;60.42;98786.69;1892762;76;20350;-64
2021/07/16 04:17:29;;;;;;;;;;;;;;;26.10;60.28;98789.95;1892814;76;20203;-63
2021/07/16 04:20:04;;;;;;;;;;;;;;;26.27;59.79;98789.50;1873554;76;20097;-64
2021/07/16 04:23:00;;;;;;;;;;;;;;;26.39;59.08;98787.49;1873434;76;20204;-62
2021/07/16 04:25:35;;;;;;;;;;;;;;;26.48;58.85;98784.30;1873418;76;20097;-63
2021/07/16 04:28:10;;;;;;;;;;;;;;;26.57;58.74;98777.20;1873426;76;20344;-63
2021/07/16 04:30:45;;;;;;;;;;;;;;;26.65;58.56;98785.18;1892892;76;20093;-64
2021/07/16 04:33:20;;;;;;;;;;;;;;;26.74;58.27;98780.21;1873266;76;20097;-64
2021/07/16 04:35:55;;;;;;;;;;;;;;;26.80;58.03;98785.61;1873459;76;20250;-63
2021/07/16 04:38:31;;;;;;;;;;;;;;;26.92;57.82;98787.99;1873195;76;20098;-63
2021/07/16 04:41:06;;;;;;;;;;;;;;;27.04;57.53;98789.44;1892790;76;20374;-63
2021/07/16 04:43:40;;;;;;;;;;;;;;;27.18;57.20;98790.47;1873487;76;20451;-63
2021/07/16 04:46:23;;;;;;;;;;;;;;;27.33;56.82;98785.58;1853634;77;20119;-64
2021/07/16 04:48:58;;;;;;;;;;;;;;;27.45;56.62;98784.83;1873461;76;20220;-63
2021/07/16 04:51:34;;;;;;;;;;;;;;;27.66;56.09;98785.78;1873492;76;20093;-64
2021/07/16 04:54:10;;;;;;;;;;;;;;;27.85;55.82;98789.48;1873424;76;20212;-63
2021/07/16 04:56:45;;;;;;;;;;;;;;;27.98;55.58;98794.38;1892890;76;20370;-63
2021/07/16 04:59:20;;;;;;;;;;;;;;;28.15;54.97;98799.95;1873296;76;20101;-64
2021/07/16 05:01:54;;;;;;;;;;;;;;;28.20;54.85;98799.66;1873495;76;20094;-65
2021/07/16 05:04:30;;;;;;;;;;;;;;;28.24;54.85;98803.80;1873284;76;20204;-63
2021/07/16 05:07:12;;;;;;;;;;;;;;;28.35;53.91;98798.67;1892665;76;20159;-65
2021/07/16 05:10:07;;;;;;;;;;;;;;;28.49;53.66;98797.80;1873457;76;20355;-63
2021/07/16 05:12:43;;;;;;;;;;;;;;;28.65;52.77;98803.83;1873277;76;20097;-65
2021/07/16 05:15:37;;;;;;;;;;;;;;;28.79;52.56;98807.72;1873434;76;20102;-63
2021/07/16 05:18:31;;;;;;;;;;;;;;;28.86;52.09;98811.31;1892740;76;20097;-64
2021/07/16 05:21:08;;;;;;;;;;;;;;;28.90;52.04;98808.36;1873469;76;20204;-64
2021/07/16 05:24:03;;;;;;;;;;;;;;;29.03;51.82;98803.08;1873289;76;20101;-63
2021/07/16 05:26:39;;;;;;;;;;;;;;;29.23;51.57;98810.18;1892770;76;20467;-64
2021/07/16 05:29:13;;;;;;;;;;;;;;;29.44;51.03;98811.38;1892765;76;20203;-63
2021/07/16 05:31:48;;;;;;;;;;;;;;;29.57;50.61;98814.04;1892790;76;20097;-63
2021/07/16 05:34:23;;;;;;;;;;;;;;;29.56;50.46;98805.19;1873304;76;20097;-63
2021/07/16 05:37:02;;;;;;;;;;;;;;;29.59;50.25;98808.98;1873225;76;20208;-63
2021/07/16 05:39:37;;;;;;;;;;;;;;;29.68;50.30;98808.84;1873457;76;20348;-64
2021/07/16 05:42:30;;;;;;;;;;;;;;;29.82;49.92;98801.23;1873451;76;20097;-62
2021/07/16 05:45:06;;;;;;;;;;;;;;;29.96;49.74;98809.06;1873375;76;20093;-63
2021/07/16 05:47:41;;;;;;;;;;;;;;;30.15;49.47;98804.62;1892770;76;20092;-63
2021/07/16 05:50:15;;;;;;;;;;;;;;;30.24;49.13;98817.77;1873437;76;20093;-63
2021/07/16 05:52:58;;;;;;;;;;;;;;;30.53;48.89;98810.78;1892787;76;20117;-64
2021/07/16 05:55:33;;;;;;;;;;;;;;;31.47;47.43;98819.27;1873470;76;20212;-62
2021/07/16 05:58:27;;;;;;;;;;;;;;;32.67;44.26;98821.77;1873322;76;20209;-63
2021/07/16 06:01:20;;;;;;;;;;;;;;;33.61;42.04;98830.80;1892899;76;20203;-64
2021/07/16 06:03:54;;;;;;;;;;;;;;;34.49;40.82;98831.99;1873479;76;20098;-63
2021/07/16 06:06:29;;;;;;;;;;;;;;;35.46;39.69;98829.33;1873411;76;20347;-64
2021/07/16 06:09:05;;;;;;;;;;;;;;;36.46;37.04;98838.08;1873480;76;20093;-62
2021/07/16 06:11:40;;;;;;;;;;;;;;;37.11;35.92;98841.09;1873454;76;20212;-63
2021/07/16 06:14:13;;;;;;;;;;;;;;;37.51;35.17;98837.89;1873643;76;20101;-63
2021/07/16 06:16:51;;;;;;;;;;;;;;;37.77;34.73;98847.80;1873435;76;20094;-63
2021/07/16 06:19:25;;;;;;;;;;;;;;;38.06;33.73;98855.54;1873464;76;20450;-64
2021/07/16 06:22:19;;;;;;;;;;;;;;;38.11;33.38;98855.90;1873396;76;20208;-63
2021/07/16 06:25:15;;;;;;;;;;;;;;;38.21;33.24;98853.92;1892712;76;20100;-63
2021/07/16 06:27:49;;;;;;;;;;;;;;;38.36;33.15;98860.05;1873484;76;20208;-64
2021/07/16 06:30:42;;;;;;;;;;;;;;;38.95;32.28;98863.59;1873383;76;20215;-63
2021/07/16 06:33:17;;;;;;;;;;;;;;;39.29;31.80;98856.69;1873495;76;20180;-63
2021/07/16 06:35:52;;;;;;;;;;;;;;;39.50;31.81;98861.59;1892790;76;20100;-62
2021/07/16 06:38:26;;;;;;;;;;;;;;;39.90;31.04;98859.84;1892797;76;20100;-62
2021/07/16 06:41:02;;;;;;;;;;;;;;;39.96;31.47;98866.92;1873239;76;20212;-66
2021/07/16 06:43:37;;;;;;;;;;;;;;;40.46;30.16;98873.84;1892697;76;20199;-64
2021/07/16 06:46:16;;;;;;;;;;;;;;;40.65;30.19;98874.72;1892777;76;20207;-64
2021/07/16 06:49:10;;;;;;;;;;;;;;;40.83;29.72;98873.63;1873387;76;20444;-63
2021/07/16 06:51:44;;;;;;;;;;;;;;;40.95;29.76;98869.48;1873475;76;20097;-63
2021/07/16 06:54:19;;;;;;;;;;;;;;;41.16;29.73;98872.37;1873463;76;20158;-63
2021/07/16 06:56:54;;;;;;;;;;;;;;;41.53;29.24;98873.45;1892728;76;20215;-64
2021/07/16 06:59:35;;;;;;;;;;;;;;;41.94;28.58;98881.69;1872535;76;20097;-63
2021/07/16 07:02:09;;;;;;;;;;;;;;;42.18;28.01;98885.96;1892759;76;20097;-63
2021/07/16 07:04:44;;;;;;;;;;;;;;;41.98;28.30;98882.48;1873462;76;20453;-64
2021/07/16 07:07:38;;;;;;;;;;;;;;;41.93;28.56;98888.08;1880031;76;20156;-63
2021/07/16 07:10:13;;;;;;;;;;;;;;;42.14;28.17;98884.67;1892755;76;20203;-64
2021/07/16 07:13:09;;;;;;;;;;;;;;;42.56;27.77;98879.05;1892892;76;20446;-63
2021/07/16 07:15:43;;;;;;;;;;;;;;;43.18;26.91;98888.01;1873426;76;20097;-64
2021/07/16 07:18:39;;;;;;;;;;;;;;;43.32;27.00;98884.88;1873520;76;20343;-64
2021/07/16 07:21:14;;;;;;;;;;;;;;;43.14;27.41;98882.59;1892777;76;20096;-63
2021/07/16 07:23:50;;;;;;;;;;;;;;;43.01;27.53;98881.13;1873291;76;20356;-63
2021/07/16 07:26:24;;;;;;;;;;;;;;;43.22;27.67;98884.38;1873445;76;20184;-65
2021/07/16 07:29:00;;;;;;;;;;;;;;;43.50;27.20;98885.22;1873295;76;20348;-63
2021/07/16 07:31:35;;;;;;;;;;;;;;;43.62;26.84;98888.28;1892839;76;20343;-65
2021/07/16 07:34:12;;;;;;;;;;;;;;;42.93;27.54;98890.24;1873289;76;20343;-64
2021/07/16 07:37:05;;;;;;;;;;;;;;;42.21;28.64;98891.87;1892769;76;20096;-64
2021/07/16 07:39:59;;;;;;;;;;;;;;;42.20;28.51;98898.83;1892871;76;20208;-65
2021/07/16 07:42:33;;;;;;;;;;;;;;;42.19;28.66;98891.20;1873503;76;20341;-65
2021/07/16 07:45:09;;;;;;;;;;;;;;;42.25;28.78;98895.86;1873436;76;20140;-66
2021/07/16 07:47:50;;;;;;;;;;;;;;;42.54;28.36;98897.39;1872510;76;20098;-64
2021/07/16 07:50:44;;;;;;;;;;;;;;;42.23;28.74;98906.58;1892733;76;20461;-63
2021/07/16 07:53:38;;;;;;;;;;;;;;;42.33;28.61;98898.98;1873220;76;20204;-62
2021/07/16 07:56:18;;;;;;;;;;;;;;;42.25;28.64;98899.09;1872560;76;20101;-65
2021/07/16 07:58:54;;;;;;;;;;;;;;;42.29;29.06;98899.06;1873410;76;20208;-64
2021/07/16 08:01:30;;;;;;;;;;;;;;;42.66;28.12;98910.79;1873438;76;20454;-63
2021/07/16 08:04:23;;;;;;;;;;;;;;;42.00;29.38;98902.61;1872281;76;20232;-63
2021/07/16 08:07:16;;;;;;;;;;;;;;;41.34;30.06;98898.30;1864635;76;20231;-64
2021/07/16 08:09:51;;;;;;;;;;;;;;;41.06;30.57;98893.41;1865905;76;20226;-65
2021/07/16 08:12:45;;;;;;;;;;;;;;;41.31;30.38;98889.19;1866731;76;20277;-63
2021/07/16 08:15:21;;;;;;;;;;;;;;;42.29;29.30;98904.48;1873261;76;20114;-65
2021/07/16 08:18:15;;;;;;;;;;;;;;;43.30;28.05;98911.39;1873184;76;20101;-63
2021/07/16 08:20:50;;;;;;;;;;;;;;;42.63;27.99;98901.69;1873465;76;20208;-63
2021/07/16 08:23:43;;;;;;;;;;;;;;;42.61;28.37;98906.45;1873391;76;20356;-63
2021/07/16 08:26:21;;;;;;;;;;;;;;;43.48;27.76;98906.84;1873528;76;20097;-64
2021/07/16 08:29:16;;;;;;;;;;;;;;;44.62;25.81;98910.08;1892716;76;20100;-63
2021/07/16 08:32:09;;;;;;;;;;;;;;;44.33;26.19;98904.93;1892711;76;20207;-64
2021/07/16 08:34:45;;;;;;;;;;;;;;;43.83;26.65;98910.47;1873278;76;20093;-63
2021/07/16 08:37:38;;;;;;;;;;;;;;;42.52;28.27;98909.81;1852682;76;20228;-62
2021/07/16 08:40:14;;;;;;;;;;;;;;;41.48;29.48;98902.09;1855337;76;20386;-63
2021/07/16 08:43:09;;;;;;;;;;;;;;;40.52;30.87;98890.70;1861012;75;20136;-61
2021/07/16 08:46:00;;;;;;;;;;;;;;;39.84;32.20;98888.05;1866500;76;20275;-62
2021/07/16 08:48:34;;;;;;;;;;;;;;;39.47;32.72;98890.80;1869974;76;20326;-63
2021/07/16 08:51:30;;;;;;;;;;;;;;;38.82;33.73;98883.45;1885849;76;20225;-64
2021/07/16 08:54:04;;;;;;;;;;;;;;;38.27;34.98;98886.63;1858386;76;20480;-65
2021/07/16 08:57:05;;;;;;;;;;;;;;;38.39;35.11;98876.73;1859972;76;20230;-62
2021/07/16 08:59:59;;;;;;;;;;;;;;;38.37;35.05;98876.55;1892543;76;20203;-65
2021/07/16 09:02:35;;;;;;;;;;;;;;;38.18;35.35;98881.71;1873201;76;20216;-63
2021/07/16 09:05:15;;;;;;;;;;;;;;;38.52;35.29;98873.63;1872479;76;20454;-65
2021/07/16 09:08:17;;;;;;;;;;;;;;;39.33;34.15;98873.89;1873520;76;20201;-63
2021/07/16 09:10:54;;;;;;;;;;;;;;;39.62;33.64;98878.80;1873366;76;20208;-63
2021/07/16 09:13:51;;;;;;;;;;;;;;;39.67;33.41;98864.27;1873307;76;20216;-64
2021/07/16 09:17:03;;;;;;;;;;;;;;;39.64;33.72;98872.70;1873371;76;20101;-64
2021/07/16 09:20:04;;;;;;;;;;;;;;;39.05;34.54;98873.72;1892532;76;20211;-63
2021/07/16 09:22:44;;;;;;;;;;;;;;;38.72;34.47;98869.27;1892726;76;20215;-64
2021/07/16 09:25:22;;;;;;;;;;;;;;;38.75;34.52;98864.41;1873338;76;20350;-63
2021/07/16 09:28:25;;;;;;;;;;;;;;;38.86;34.21;98873.51;1873454;76;20208;-64
2021/07/16 09:31:23;;;;;;;;;;;;;;;38.16;35.04;98877.82;1873195;76;20172;-64
2021/07/16 09:34:20;;;;;;;;;;;;;;;37.37;36.29;98868.03;1873266;76;20212;-63
2021/07/16 09:37:12;;;;;;;;;;;;;;;36.88;37.34;98859.02;1873074;76;20098;-64
2021/07/16 09:39:47;;;;;;;;;;;;;;;36.67;37.53;98862.52;1892685;76;20097;-64
2021/07/16 09:42:25;;;;;;;;;;;;;;;36.56;38.00;98857.34;1873336;76;20149;-63
2021/07/16 09:45:18;;;;;;;;;;;;;;;36.48;38.27;98858.91;1873175;76;20102;-63
2021/07/16 09:47:53;;;;;;;;;;;;;;;36.43;38.41;98849.11;1873420;76;20208;-64
2021/07/16 09:50:27;;;;;;;;;;;;;;;36.41;38.46;98848.91;1870151;76;20344;-63
2021/07/16 09:53:22;;;;;;;;;;;;;;;36.25;38.77;98842.86;1892566;76;20096;-63
2021/07/16 09:56:11;;;;;;;;;;;;;;;35.93;39.55;98842.78;1872500;76;20212;-63
2021/07/16 09:59:08;;;;;;;;;;;;;;;35.64;39.95;98846.40;1873258;76;20094;-64
2021/07/16 10:02:02;;;;;;;;;;;;;;;35.30;40.62;98841.17;1892308;76;20274;-64
2021/07/16 10:04:37;;;;;;;;;;;;;;;34.93;40.99;98846.72;1858037;76;20377;-64
2021/07/16 10:07:13;;;;;;;;;;;;;;;34.67;41.95;98846.43;1871469;76;20206;-63
2021/07/16 10:10:17;;;;;;;;;;;;;;;34.45;42.69;98841.28;1851261;76;20370;-65
2021/07/16 10:12:51;;;;;;;;;;;;;;;34.32;43.32;98844.22;1863352;76;20226;-64
2021/07/16 10:15:26;;;;;;;;;;;;;;;34.33;43.40;98841.41;1873452;76;20212;-64
2021/07/16 10:18:02;;;;;;;;;;;;;;;34.48;42.91;98837.85;1892743;76;20142;-64
2021/07/16 10:20:57;;;;;;;;;;;;;;;34.85;42.54;98835.02;1861133;76;20118;-63
2021/07/16 10:23:52;;;;;;;;;;;;;;;34.89;42.18;98831.08;1863498;76;20116;-65
2021/07/16 10:26:27;;;;;;;;;;;;;;;34.75;41.75;98832.33;1859110;76;20298;-65
2021/07/16 10:29:02;;;;;;;;;;;;;;;34.44;42.10;98833.74;1855547;76;20113;-65
2021/07/16 10:31:39;;;;;;;;;;;;;;;34.16;42.80;98828.67;1852837;76;20116;-64
2021/07/16 10:34:31;;;;;;;;;;;;;;;34.18;42.85;98830.73;1862436;76;20113;-63
2021/07/16 10:37:26;;;;;;;;;;;;;;;34.35;42.89;98827.39;1855895;76;20477;-64
2021/07/16 10:40:00;;;;;;;;;;;;;;;34.45;42.06;98826.08;1865550;76;20119;-63
2021/07/16 10:42:44;;;;;;;;;;;;;;;34.38;42.64;98825.43;1892739;76;20215;-63
2021/07/16 10:45:42;;;;;;;;;;;;;;;34.43;42.78;98824.02;1872580;76;20097;-66
2021/07/16 10:48:41;;;;;;;;;;;;;;;34.39;41.37;98823.93;1849286;76;20230;-64
2021/07/16 10:51:36;;;;;;;;;;;;;;;34.26;41.54;98820.67;1873449;76;20216;-64
2021/07/16 10:54:14;;;;;;;;;;;;;;;34.31;41.27;98812.56;1873640;76;20336;-64
2021/07/16 10:57:14;;;;;;;;;;;;;;;34.30;41.11;98816.24;1873219;76;20102;-65
2021/07/16 10:59:50;;;;;;;;;;;;;;;34.25;41.08;98806.44;1873234;76;20184;-66
2021/07/16 11:02:40;;;;;;;;;;;;;;;34.11;41.33;98801.45;1892788;76;20453;-65
2021/07/16 11:05:42;;;;;;;;;;;;;;;34.00;41.48;98809.58;1873392;76;20351;-66
2021/07/16 11:08:39;;;;;;;;;;;;;;;33.99;41.08;98809.20;1892808;76;20092;-64
2021/07/16 11:11:40;;;;;;;;;;;;;;;34.11;40.89;98804.13;1892668;76;20121;-64
2021/07/16 11:14:37;;;;;;;;;;;;;;;34.28;41.01;98802.63;1873419;76;20152;-66
2021/07/16 11:17:36;;;;;;;;;;;;;;;34.32;40.85;98804.90;1873356;76;20101;-65
2021/07/16 11:20:31;;;;;;;;;;;;;;;34.15;40.89;98805.56;1873421;76;20351;-63
2021/07/16 11:23:48;;;;;;;;;;;;;;;34.00;41.31;98798.36;1873265;76;20101;-65
2021/07/16 11:26:23;;;;;;;;;;;;;;;34.08;40.91;98800.39;1892738;76;20353;-62
2021/07/16 11:28:57;;;;;;;;;;;;;;;34.08;40.31;98804.41;1873479;76;20201;-63
2021/07/16 11:31:31;;;;;;;;;;;;;;;34.19;40.21;98796.25;1873518;76;20097;-65
2021/07/16 11:34:09;;;;;;;;;;;;;;;34.23;39.46;98784.28;1873484;76;20213;-65
2021/07/16 11:36:50;;;;;;;;;;;;;;;34.25;39.28;98789.02;1892745;76;20096;-64
2021/07/16 11:39:45;;;;;;;;;;;;;;;34.48;38.67;98782.08;1873283;76;20101;-64
2021/07/16 11:42:20;;;;;;;;;;;;;;;34.56;38.13;98783.55;1873385;76;20093;-65
2021/07/16 11:44:55;;;;;;;;;;;;;;;34.59;38.22;98781.96;1873293;76;20184;-64
2021/07/16 11:47:39;;;;;;;;;;;;;;;34.54;38.25;98781.50;1892758;76;20211;-65
2021/07/16 11:50:15;;;;;;;;;;;;;;;34.54;38.42;98788.20;1892791;76;20207;-64
2021/07/16 11:53:09;;;;;;;;;;;;;;;34.58;37.38;98785.64;1873423;76;20098;-64
2021/07/16 11:56:13;;;;;;;;;;;;;;;34.60;37.26;98776.94;1868586;75;20398;-65
2021/07/16 11:58:55;;;;;;;;;;;;;;;34.57;36.98;98773.17;1871847;76;20121;-64
2021/07/16 12:02:07;;;;;;;;;;;;;;;34.44;36.39;98778.81;1852751;76;20228;-64
2021/07/16 12:04:42;;;;;;;;;;;;;;;34.33;36.88;98785.65;1859475;76;20114;-65
2021/07/16 12:07:46;;;;;;;;;;;;;;;34.40;36.84;98783.23;1868272;76;20519;-64
2021/07/16 12:10:22;;;;;;;;;;;;;;;34.54;36.58;98790.88;1871614;76;20109;-64
2021/07/16 12:13:03;;;;;;;;;;;;;;;34.62;36.09;98791.05;1854188;76;20113;-64
2021/07/16 12:16:04;;;;;;;;;;;;;;;34.76;35.72;98791.14;1865175;76;20233;-64
2021/07/16 12:18:57;;;;;;;;;;;;;;;34.87;35.61;98787.47;1873185;76;20351;-65
2021/07/16 12:21:51;;;;;;;;;;;;;;;34.87;33.94;98780.76;1873094;76;20097;-64
2021/07/16 12:24:26;;;;;;;;;;;;;;;34.78;34.40;98786.46;1848623;76;20238;-65
2021/07/16 12:27:10;;;;;;;;;;;;;;;34.77;34.27;98784.28;1853198;76;20116;-65
2021/07/16 12:29:47;;;;;;;;;;;;;;;34.77;34.65;98782.10;1873566;76;20208;-65
2021/07/16 12:32:44;;;;;;;;;;;;;;;34.63;35.01;98784.73;1873204;76;20355;-65
2021/07/16 12:35:27;;;;;;;;;;;;;;;34.60;34.13;98778.28;1873459;76;20462;-64
2021/07/16 12:38:04;;;;;;;;;;;;;;;34.59;34.91;98787.32;1873489;76;20216;-64
2021/07/16 12:41:07;;;;;;;;;;;;;;;34.61;35.12;98772.45;1873381;76;20208;-64
2021/07/16 12:44:05;;;;;;;;;;;;;;;34.70;34.97;98775.61;1873379;76;20097;-66
2021/07/16 12:47:05;;;;;;;;;;;;;;;34.78;34.69;98783.31;1872601;76;20212;-64
2021/07/16 12:49:39;;;;;;;;;;;;;;;34.90;32.58;98781.81;1873493;76;20220;-65
2021/07/16 12:52:15;;;;;;;;;;;;;;;34.96;31.16;98775.89;1884718;76;20368;-65
2021/07/16 12:55:17;;;;;;;;;;;;;;;34.98;31.53;98769.87;1867341;76;20230;-63
2021/07/16 12:58:00;;;;;;;;;;;;;;;34.89;32.27;98764.04;1873456;76;20204;-64
2021/07/16 13:00:57;;;;;;;;;;;;;;;34.68;33.01;98754.32;1892759;76;20207;-63
2021/07/16 13:03:52;;;;;;;;;;;;;;;34.57;32.45;98761.11;1873232;76;20097;-66
2021/07/16 13:06:31;;;;;;;;;;;;;;;34.57;32.00;98763.80;1875219;76;20222;-65
2021/07/16 13:09:23;;;;;;;;;;;;;;;34.58;30.86;98757.50;1860239;76;20223;-64
2021/07/16 13:12:09;;;;;;;;;;;;;;;34.57;31.10;98755.25;1857884;76;20224;-63
2021/07/16 13:15:06;;;;;;;;;;;;;;;34.71;31.76;98748.67;1873422;76;20233;-64
2021/07/16 13:18:08;;;;;;;;;;;;;;;34.78;30.53;98752.48;1859991;76;20122;-64
2021/07/16 13:21:04;;;;;;;;;;;;;;;34.92;30.45;98750.34;1848263;76;20258;-65
2021/07/16 13:23:40;;;;;;;;;;;;;;;34.99;30.12;98750.13;1860512;76;20116;-64
2021/07/16 13:26:32;;;;;;;;;;;;;;;34.94;30.27;98742.50;1868491;76;20237;-66
2021/07/16 13:29:07;;;;;;;;;;;;;;;34.81;30.12;98741.97;1853788;76;20180;-64
2021/07/16 13:31:42;;;;;;;;;;;;;;;34.70;30.69;98747.45;1852877;76;20416;-65
2021/07/16 13:34:16;;;;;;;;;;;;;;;34.78;30.65;98739.08;1855223;76;20120;-63
2021/07/16 13:37:10;;;;;;;;;;;;;;;35.12;29.96;98742.64;1853108;76;20406;-63
2021/07/16 13:39:44;;;;;;;;;;;;;;;35.22;29.59;98736.75;1864155;76;20224;-64
2021/07/16 13:42:39;;;;;;;;;;;;;;;35.33;29.47;98734.88;1855314;76;20381;-63
2021/07/16 13:45:14;;;;;;;;;;;;;;;35.36;29.70;98731.90;1855988;76;20119;-62
2021/07/16 13:47:55;;;;;;;;;;;;;;;35.28;28.82;98731.80;1855639;76;20115;-63
2021/07/16 13:50:30;;;;;;;;;;;;;;;35.06;29.53;98724.89;1873268;76;20106;-63
2021/07/16 13:53:04;;;;;;;;;;;;;;;34.90;29.73;98718.80;1873276;76;20267;-65
2021/07/16 13:55:40;;;;;;;;;;;;;;;34.77;29.71;98729.32;1892827;76;20100;-66
2021/07/16 13:58:15;;;;;;;;;;;;;;;34.71;30.00;98722.36;1870828;76;20160;-64
2021/07/16 14:00:49;;;;;;;;;;;;;;;34.60;29.83;98728.70;1869211;76;20113;-64
2021/07/16 14:03:24;;;;;;;;;;;;;;;34.61;30.12;98718.34;1859213;76;20113;-64
2021/07/16 14:06:05;;;;;;;;;;;;;;;34.68;30.68;98723.49;1855688;76;20230;-63
2021/07/16 14:08:39;;;;;;;;;;;;;;;34.69;32.31;98726.52;1862090;76;20115;-64